Observation data for Knox City on 05/27/2019      Previous  Date  Next       Current Mesonet Observations  Soil Data  Daily Summary Page  Observations in Plain Language
KKN1 270500Z 14007KT 24/19 A2986 RMK A01 T02430187  RH  075%=      5-min Rain = 0
KKN1 270505Z 14007KT 24/19 A2986 RMK A01 T02410187  RH  076%=      5-min Rain = 0
KKN1 270510Z 14008KT 24/19 A2985 RMK A01 T02400187  RH  076%=      5-min Rain = 0
KKN1 270515Z 14008KT 24/19 A2985 RMK A01 T02400187  RH  076%=      5-min Rain = 0
KKN1 270520Z 15007KT 24/19 A2985 RMK A01 T02380187  RH  077%=      5-min Rain = 0
KKN1 270525Z 15007KT 24/19 A2986 RMK A01 T02370187  RH  078%=      5-min Rain = 0
KKN1 270530Z 15007KT 24/19 A2985 RMK A01 T02360187  RH  078%=      5-min Rain = 0
KKN1 270535Z 14007KT 24/19 A2985 RMK A01 T02350187  RH  079%=      5-min Rain = 0
KKN1 270540Z 14007KT 23/19 A2985 RMK A01 T02340187  RH  079%=      5-min Rain = 0
KKN1 270545Z 14006KT 23/19 A2986 RMK A01 T02320187  RH  080%=      5-min Rain = 0
KKN1 270550Z 14006KT 23/19 A2986 RMK A01 T02300187  RH  081%=      5-min Rain = 0
KKN1 270555Z 13005KT 23/19 A2985 RMK A01 T02280187  RH  082%=      5-min Rain = 0
KKN1 270600Z 13006KT 23/19 A2985 RMK A01 T02260187  RH  083%=      5-min Rain = 0
KKN1 270605Z 13005KT 23/19 A2985 RMK A01 T02250187  RH  084%=      5-min Rain = 0
KKN1 270610Z 13005KT 22/19 A2985 RMK A01 T02230187  RH  084%=      5-min Rain = 0
KKN1 270615Z 13004KT 22/19 A2985 RMK A01 T02210187  RH  085%=      5-min Rain = 0
KKN1 270620Z 14003KT 22/19 A2985 RMK A01 T02200187  RH  086%=      5-min Rain = 0
KKN1 270625Z 14002KT 22/19 A2985 RMK A01 T02200186  RH  086%=      5-min Rain = 0
KKN1 270630Z 15002KT 22/19 A2985 RMK A01 T02190186  RH  086%=      5-min Rain = 0
KKN1 270635Z 14005KT 22/19 A2985 RMK A01 T02180188  RH  088%=      5-min Rain = 0
KKN1 270640Z 14005KT 22/19 A2985 RMK A01 T02150186  RH  088%=      5-min Rain = 0
KKN1 270645Z 14004KT 21/19 A2985 RMK A01 T02140186  RH  089%=      5-min Rain = 0
KKN1 270650Z 14003KT 21/19 A2985 RMK A01 T02140186  RH  088%=      5-min Rain = 0
KKN1 270655Z 14003KT 22/19 A2985 RMK A01 T02150186  RH  088%=      5-min Rain = 0
KKN1 270700Z 14003KT 22/19 A2984 RMK A01 T02160186  RH  088%=      5-min Rain = 0
KKN1 270705Z 14005KT 22/19 A2984 RMK A01 T02160186  RH  088%=      5-min Rain = 0
KKN1 270710Z 15007KT 22/19 A2983 RMK A01 T02170187  RH  088%=      5-min Rain = 0
KKN1 270715Z 15007KT 22/19 A2983 RMK A01 T02180187  RH  087%=      5-min Rain = 0
KKN1 270720Z 15007KT 22/19 A2983 RMK A01 T02200187  RH  086%=      5-min Rain = 0
KKN1 270725Z 15007KT 22/19 A2983 RMK A01 T02210188  RH  086%=      5-min Rain = 0
KKN1 270730Z 15007KT 22/19 A2983 RMK A01 T02220187  RH  085%=      5-min Rain = 0
KKN1 270735Z 15009KT 22/19 A2982 RMK A01 T02240188  RH  084%=      5-min Rain = 0
KKN1 270740Z 15009G14KT 23/19 A2982 RMK A01 T02270188  RH  083%=      5-min Rain = 0
KKN1 270745Z 16010KT 23/19 A2982 RMK A01 T02280187  RH  082%=      5-min Rain = 0
KKN1 270750Z 16009KT 23/19 A2982 RMK A01 T02280187  RH  082%=      5-min Rain = 0
KKN1 270755Z 15010G15KT 23/19 A2982 RMK A01 T02280187  RH  082%=      5-min Rain = 0
KKN1 270800Z 16010KT 23/19 A2982 RMK A01 T02290187  RH  081%=      5-min Rain = 0
KKN1 270805Z 15010KT 23/19 A2982 RMK A01 T02290187  RH  082%=      5-min Rain = 0
KKN1 270810Z 15010KT 23/19 A2982 RMK A01 T02290187  RH  082%=      5-min Rain = 0
KKN1 270815Z 15009KT 23/19 A2982 RMK A01 T02280186  RH  082%=      5-min Rain = 0
KKN1 270820Z 15008KT 23/19 A2982 RMK A01 T02280186  RH  081%=      5-min Rain = 0
KKN1 270825Z 15007KT 23/19 A2982 RMK A01 T02270186  RH  082%=      5-min Rain = 0
KKN1 270830Z 15008KT 23/19 A2982 RMK A01 T02260186  RH  082%=      5-min Rain = 0
KKN1 270835Z 15007KT 23/19 A2982 RMK A01 T02250186  RH  083%=      5-min Rain = 0
KKN1 270840Z 15008KT 22/19 A2982 RMK A01 T02240186  RH  083%=      5-min Rain = 0
KKN1 270845Z 16007KT 22/19 A2982 RMK A01 T02240186  RH  084%=      5-min Rain = 0
KKN1 270850Z 17005KT 22/19 A2984 RMK A01 T02230186  RH  084%=      5-min Rain = 0
KKN1 270855Z 22004KT 22/19 A2985 RMK A01 T02240186  RH  084%=      5-min Rain = 0
KKN1 270900Z 18005KT 23/19 A2985 RMK A01 T02250187  RH  084%=      5-min Rain = 0
KKN1 270905Z 16007KT 22/19 A2984 RMK A01 T02220186  RH  084%=      5-min Rain = 0
KKN1 270910Z 19005KT 22/19 A2985 RMK A01 T02210186  RH  085%=      5-min Rain = 0
KKN1 270915Z 18006KT 22/19 A2985 RMK A01 T02230187  RH  085%=      5-min Rain = 0
KKN1 270920Z 17007KT 22/19 A2984 RMK A01 T02210187  RH  085%=      5-min Rain = 0
KKN1 270925Z 17006KT 22/19 A2984 RMK A01 T02210187  RH  086%=      5-min Rain = 0
KKN1 270930Z 17006KT 22/19 A2984 RMK A01 T02210187  RH  086%=      5-min Rain = 0
KKN1 270935Z 17006KT 22/19 A2984 RMK A01 T02220188  RH  086%=      5-min Rain = 0
KKN1 270940Z 17005KT 22/19 A2985 RMK A01 T02220188  RH  086%=      5-min Rain = 0
KKN1 270945Z 17004KT 22/19 A2985 RMK A01 T02220188  RH  086%=      5-min Rain = 0
KKN1 270950Z 16005KT 22/19 A2985 RMK A01 T02220188  RH  086%=      5-min Rain = 0
KKN1 270955Z 16005KT 22/19 A2985 RMK A01 T02220188  RH  086%=      5-min Rain = 0
KKN1 271000Z 16007KT 22/19 A2985 RMK A01 T02220189  RH  086%=      5-min Rain = 0
KKN1 271005Z 16006KT 22/19 A2985 RMK A01 T02230189  RH  086%=      5-min Rain = 0
KKN1 271010Z 16006KT 22/19 A2985 RMK A01 T02230189  RH  085%=      5-min Rain = 0
KKN1 271015Z 16007KT 22/19 A2985 RMK A01 T02240189  RH  085%=      5-min Rain = 0
KKN1 271020Z 16007KT 22/19 A2985 RMK A01 T02240189  RH  085%=      5-min Rain = 0
KKN1 271025Z 16007KT 22/19 A2985 RMK A01 T02240188  RH  085%=      5-min Rain = 0
KKN1 271030Z 16008KT 23/19 A2985 RMK A01 T02250189  RH  085%=      5-min Rain = 0
KKN1 271035Z 16009KT 23/19 A2986 RMK A01 T02250188  RH  084%=      5-min Rain = 0
KKN1 271040Z 15008KT 23/19 A2986 RMK A01 T02260188  RH  084%=      5-min Rain = 0
KKN1 271045Z 15009KT 23/19 A2986 RMK A01 T02260188  RH  084%=      5-min Rain = 0
KKN1 271050Z 15008KT 23/19 A2985 RMK A01 T02260188  RH  084%=      5-min Rain = 0
KKN1 271055Z 15009KT 23/19 A2985 RMK A01 T02260188  RH  083%=      5-min Rain = 0
KKN1 271100Z 15009KT 23/19 A2985 RMK A01 T02270188  RH  083%=      5-min Rain = 0
KKN1 271105Z 15009KT 23/19 A2985 RMK A01 T02270189  RH  084%=      5-min Rain = 0
KKN1 271110Z 15009KT 23/19 A2985 RMK A01 T02260188  RH  084%=      5-min Rain = 0
KKN1 271115Z 15009KT 23/19 A2985 RMK A01 T02270188  RH  083%=      5-min Rain = 0
KKN1 271120Z 15009KT 23/19 A2985 RMK A01 T02270189  RH  083%=      5-min Rain = 0
KKN1 271125Z 15010KT 23/19 A2985 RMK A01 T02270189  RH  084%=      5-min Rain = 0
KKN1 271130Z 15009KT 23/19 A2985 RMK A01 T02280189  RH  083%=      5-min Rain = 0
KKN1 271135Z 15009KT 23/19 A2985 RMK A01 T02270189  RH  084%=      5-min Rain = 0
KKN1 271140Z 15009KT 23/19 A2986 RMK A01 T02270189  RH  084%=      5-min Rain = 0
KKN1 271145Z 15010KT 23/19 A2986 RMK A01 T02280190  RH  084%=      5-min Rain = 0
KKN1 271150Z 16010KT 23/19 A2986 RMK A01 T02280190  RH  084%=      5-min Rain = 0
KKN1 271155Z 16010KT 23/19 A2986 RMK A01 T02280189  RH  083%=      5-min Rain = 0
KKN1 271200Z 16011KT 23/19 A2986 RMK A01 T02280189  RH  083%=      5-min Rain = 0
KKN1 271205Z 16011KT 23/19 A2986 RMK A01 T02290189  RH  083%=      5-min Rain = 0
KKN1 271210Z 16012KT 23/19 A2986 RMK A01 T02300189  RH  082%=      5-min Rain = 0
KKN1 271215Z 15011G16KT 23/19 A2986 RMK A01 T02300189  RH  082%=      5-min Rain = 0
KKN1 271220Z 16013KT 23/19 A2986 RMK A01 T02300189  RH  082%=      5-min Rain = 0
KKN1 271225Z 16013G18KT 23/19 A2986 RMK A01 T02310189  RH  081%=      5-min Rain = 0
KKN1 271230Z 16012G17KT 23/19 A2986 RMK A01 T02310189  RH  081%=      5-min Rain = 0
KKN1 271235Z 16013KT 23/19 A2986 RMK A01 T02320188  RH  081%=      5-min Rain = 0
KKN1 271240Z 16015KT 23/19 A2986 RMK A01 T02320188  RH  080%=      5-min Rain = 0
KKN1 271245Z 16014G19KT 23/19 A2986 RMK A01 T02330188  RH  080%=      5-min Rain = 0
KKN1 271250Z 16014KT 23/19 A2986 RMK A01 T02330187  RH  080%=      5-min Rain = 0
KKN1 271255Z 16015KT 23/19 A2986 RMK A01 T02340187  RH  079%=      5-min Rain = 0
KKN1 271300Z 16015KT 23/19 A2986 RMK A01 T02340186  RH  079%=      5-min Rain = 0
KKN1 271305Z 16015G20KT 24/19 A2986 RMK A01 T02360186  RH  078%=      5-min Rain = 0
KKN1 271310Z 16014G19KT 24/19 A2986 RMK A01 T02370187  RH  077%=      5-min Rain = 0
KKN1 271315Z 16015G21KT 24/19 A2986 RMK A01 T02380187  RH  077%=      5-min Rain = 0
KKN1 271320Z 16014G19KT 24/19 A2986 RMK A01 T02400187  RH  076%=      5-min Rain = 0
KKN1 271325Z 16016G22KT 24/19 A2986 RMK A01 T02400186  RH  075%=      5-min Rain = 0
KKN1 271330Z 16016G24KT 24/18 A2986 RMK A01 T02390184  RH  075%=      5-min Rain = 0
KKN1 271335Z 16015G22KT 24/19 A2986 RMK A01 T02390185  RH  075%=      5-min Rain = 0
KKN1 271340Z 16017G22KT 24/18 A2986 RMK A01 T02390183  RH  075%=      5-min Rain = 0
KKN1 271345Z 16016G22KT 24/18 A2986 RMK A01 T02390183  RH  075%=      5-min Rain = 0
KKN1 271350Z 17017G22KT 24/18 A2986 RMK A01 T02410183  RH  074%=      5-min Rain = 0
KKN1 271355Z 16017G24KT 24/18 A2986 RMK A01 T02420183  RH  073%=      5-min Rain = 0
KKN1 271400Z 16017G23KT 24/18 A2986 RMK A01 T02430183  RH  073%=      5-min Rain = 0
KKN1 271405Z 17017G22KT 25/18 A2986 RMK A01 T02450183  RH  072%=      5-min Rain = 0
KKN1 271410Z 16016G21KT 25/18 A2986 RMK A01 T02460183  RH  072%=      5-min Rain = 0
KKN1 271415Z 17016G23KT 25/18 A2986 RMK A01 T02490184  RH  071%=      5-min Rain = 0
KKN1 271420Z 17016G22KT 25/18 A2986 RMK A01 T02510184  RH  070%=      5-min Rain = 0
KKN1 271425Z 17016G21KT 25/18 A2986 RMK A01 T02500184  RH  070%=      5-min Rain = 0
KKN1 271430Z 17018G24KT 25/18 A2986 RMK A01 T02530183  RH  069%=      5-min Rain = 0
KKN1 271435Z 17016G21KT 25/18 A2986 RMK A01 T02540184  RH  069%=      5-min Rain = 0
KKN1 271440Z 17016KT 25/18 A2986 RMK A01 T02510183  RH  070%=      5-min Rain = 0
KKN1 271445Z 17016G21KT 25/18 A2986 RMK A01 T02500183  RH  070%=      5-min Rain = 0
KKN1 271450Z 17016KT 25/18 A2986 RMK A01 T02520184  RH  070%=      5-min Rain = 0
KKN1 271455Z 17016G21KT 25/18 A2986 RMK A01 T02520184  RH  070%=      5-min Rain = 0
KKN1 271500Z 17014G20KT 26/19 A2986 RMK A01 T02550185  RH  069%=      5-min Rain = 0
KKN1 271505Z 17016G21KT 26/18 A2986 RMK A01 T02560184  RH  068%=      5-min Rain = 0
KKN1 271510Z 18015G21KT 26/19 A2986 RMK A01 T02580185  RH  068%=      5-min Rain = 0
KKN1 271515Z 18015G21KT 26/18 A2986 RMK A01 T02560184  RH  068%=      5-min Rain = 0
KKN1 271520Z 18015G20KT 26/19 A2986 RMK A01 T02570185  RH  068%=      5-min Rain = 0
KKN1 271525Z 18017G22KT 26/19 A2986 RMK A01 T02590185  RH  067%=      5-min Rain = 0
KKN1 271530Z 18014KT 26/19 A2986 RMK A01 T02630186  RH  066%=      5-min Rain = 0
KKN1 271535Z 18016G21KT 27/19 A2986 RMK A01 T02670187  RH  065%=      5-min Rain = 0
KKN1 271540Z 19015G21KT 27/19 A2985 RMK A01 T02670187  RH  065%=      5-min Rain = 0
KKN1 271545Z 18014G19KT 27/19 A2985 RMK A01 T02720188  RH  064%=      5-min Rain = 0
KKN1 271550Z 19016KT 27/19 A2985 RMK A01 T02700188  RH  064%=      5-min Rain = 0
KKN1 271555Z 19014G20KT 27/19 A2985 RMK A01 T02730190  RH  064%=      5-min Rain = 0
KKN1 271600Z 20015G20KT 28/19 A2985 RMK A01 T02760191  RH  063%=      5-min Rain = 0
KKN1 271605Z 21016G21KT 27/19 A2985 RMK A01 T02740192  RH  064%=      5-min Rain = 0
KKN1 271610Z 20014KT 28/19 A2985 RMK A01 T02770191  RH  063%=      5-min Rain = 0
KKN1 271615Z 19014G19KT 28/19 A2985 RMK A01 T02770191  RH  063%=      5-min Rain = 0
KKN1 271620Z 19015G20KT 28/19 A2985 RMK A01 T02800192  RH  062%=      5-min Rain = 0
KKN1 271625Z 19013G19KT 28/19 A2985 RMK A01 T02820192  RH  062%=      5-min Rain = 0
KKN1 271630Z 21015G21KT 28/19 A2985 RMK A01 T02810193  RH  062%=      5-min Rain = 0
KKN1 271635Z 20016G22KT 28/19 A2985 RMK A01 T02800191  RH  062%=      5-min Rain = 0
KKN1 271640Z 21015G20KT 29/19 A2984 RMK A01 T02880194  RH  060%=      5-min Rain = 0
KKN1 271645Z 21016G22KT 29/19 A2984 RMK A01 T02870192  RH  060%=      5-min Rain = 0
KKN1 271650Z 20014G20KT 29/19 A2984 RMK A01 T02930193  RH  058%=      5-min Rain = 0
KKN1 271655Z 19014G19KT 29/19 A2984 RMK A01 T02900191  RH  058%=      5-min Rain = 0
KKN1 271700Z 19013G20KT 29/19 A2984 RMK A01 T02880190  RH  059%=      5-min Rain = 0
KKN1 271705Z 19015KT 29/19 A2984 RMK A01 T02900190  RH  058%=      5-min Rain = 0
KKN1 271710Z 19012G18KT 29/19 A2984 RMK A01 T02920191  RH  058%=      5-min Rain = 0
KKN1 271715Z 18015G20KT 30/19 A2984 RMK A01 T02950191  RH  057%=      5-min Rain = 0
KKN1 271720Z 19014KT 30/19 A2984 RMK A01 T02950190  RH  056%=      5-min Rain = 0
KKN1 271725Z 19012G17KT 30/19 A2984 RMK A01 T02970192  RH  056%=      5-min Rain = 0
KKN1 271730Z 20013G21KT 30/19 A2984 RMK A01 T02990192  RH  056%=      5-min Rain = 0
KKN1 271735Z 21015G20KT 30/19 A2984 RMK A01 T02960192  RH  056%=      5-min Rain = 0
KKN1 271740Z 21014KT 30/20 A2983 RMK A01 T03010195  RH  056%=      5-min Rain = 0
KKN1 271745Z 20013KT 30/19 A2983 RMK A01 T03000193  RH  056%=      5-min Rain = 0
KKN1 271750Z 20013KT 30/19 A2983 RMK A01 T03000192  RH  055%=      5-min Rain = 0
KKN1 271755Z 19014G19KT 30/19 A2983 RMK A01 T03010191  RH  055%=      5-min Rain = 0
KKN1 271800Z 20014G22KT 30/19 A2983 RMK A01 T03020192  RH  055%=      5-min Rain = 0
KKN1 271805Z 20012G20KT 30/19 A2983 RMK A01 T03020191  RH  054%=      5-min Rain = 0
KKN1 271810Z 18012G17KT 31/19 A2982 RMK A01 T03050192  RH  054%=      5-min Rain = 0
KKN1 271815Z 18013G18KT 31/19 A2982 RMK A01 T03070191  RH  053%=      5-min Rain = 0
KKN1 271820Z 19013G20KT 31/19 A2982 RMK A01 T03060191  RH  053%=      5-min Rain = 0
KKN1 271825Z 19012G19KT 31/19 A2982 RMK A01 T03110193  RH  052%=      5-min Rain = 0
KKN1 271830Z 20011G17KT 31/19 A2982 RMK A01 T03080189  RH  052%=      5-min Rain = 0
KKN1 271835Z 21011G16KT 31/19 A2982 RMK A01 T03070191  RH  053%=      5-min Rain = 0
KKN1 271840Z 19012KT 31/19 A2982 RMK A01 T03100190  RH  052%=      5-min Rain = 0
KKN1 271845Z 20013G19KT 31/19 A2981 RMK A01 T03110191  RH  052%=      5-min Rain = 0
KKN1 271850Z 19011G16KT 31/19 A2981 RMK A01 T03140190  RH  051%=      5-min Rain = 0
KKN1 271855Z 18012G17KT 31/19 A2981 RMK A01 T03120189  RH  051%=      5-min Rain = 0
KKN1 271900Z 19013G19KT 32/19 A2981 RMK A01 T03150189  RH  050%=      5-min Rain = 0
KKN1 271905Z 18011G16KT 32/19 A2981 RMK A01 T03180189  RH  049%=      5-min Rain = 0
KKN1 271910Z 19012G19KT 32/19 A298 RMK A01 T03210190  RH  049%=      5-min Rain = 0
KKN1 271915Z 18013G19KT 32/19 A298 RMK A01 T03180190  RH  049%=      5-min Rain = 0
KKN1 271920Z 19012G18KT 32/19 A2979 RMK A01 T03180188  RH  049%=      5-min Rain = 0
KKN1 271925Z 19013KT 32/19 A2979 RMK A01 T03180188  RH  049%=      5-min Rain = 0
KKN1 271930Z 20013G19KT 32/19 A2979 RMK A01 T03170190  RH  050%=      5-min Rain = 0
KKN1 271935Z 21012G17KT 32/19 A2979 RMK A01 T03200193  RH  050%=      5-min Rain = 0
KKN1 271940Z 20011G16KT 32/19 A2979 RMK A01 T03220190  RH  048%=      5-min Rain = 0
KKN1 271945Z 19011G16KT 32/19 A2978 RMK A01 T03240190  RH  048%=      5-min Rain = 0
KKN1 271950Z 20012G18KT 32/19 A2978 RMK A01 T03220191  RH  048%=      5-min Rain = 0
KKN1 271955Z 21013G20KT 32/19 A2978 RMK A01 T03240190  RH  048%=      5-min Rain = 0
KKN1 272000Z 22012G17KT 32/19 A2978 RMK A01 T03230193  RH  049%=      5-min Rain = 0
KKN1 272005Z 20013KT 33/19 A2978 RMK A01 T03250190  RH  048%=      5-min Rain = 0
KKN1 272010Z 20012KT 32/19 A2978 RMK A01 T03230193  RH  049%=      5-min Rain = 0
KKN1 272015Z 18012KT 33/19 A2977 RMK A01 T03270193  RH  048%=      5-min Rain = 0
KKN1 272020Z 20011G16KT 33/19 A2977 RMK A01 T03270193  RH  048%=      5-min Rain = 0
KKN1 272025Z 20013KT 33/19 A2977 RMK A01 T03310192  RH  046%=      5-min Rain = 0
KKN1 272030Z 20011G17KT 33/19 A2977 RMK A01 T03300194  RH  047%=      5-min Rain = 0
KKN1 272035Z 18011G16KT 33/19 A2976 RMK A01 T03290193  RH  047%=      5-min Rain = 0
KKN1 272040Z 20011G17KT 33/19 A2976 RMK A01 T03280193  RH  047%=      5-min Rain = 0
KKN1 272045Z 20012G19KT 33/19 A2976 RMK A01 T03280193  RH  048%=      5-min Rain = 0
KKN1 272050Z 18011G16KT 33/19 A2976 RMK A01 T03280193  RH  048%=      5-min Rain = 0
KKN1 272055Z 16012KT 33/19 A2975 RMK A01 T03260193  RH  048%=      5-min Rain = 0
KKN1 272100Z 19013G20KT 33/20 A2975 RMK A01 T03290195  RH  048%=      5-min Rain = 0
KKN1 272105Z 17012G18KT 33/19 A2975 RMK A01 T03290193  RH  047%=      5-min Rain = 0
KKN1 272110Z 17012KT 33/19 A2974 RMK A01 T03320194  RH  047%=      5-min Rain = 0
KKN1 272115Z 18012G17KT 33/19 A2974 RMK A01 T03340194  RH  046%=      5-min Rain = 0
KKN1 272120Z 19014KT 33/19 A2973 RMK A01 T03320192  RH  046%=      5-min Rain = 0
KKN1 272125Z 18012G19KT 33/19 A2973 RMK A01 T03300189  RH  046%=      5-min Rain = 0
KKN1 272130Z 17013G19KT 33/19 A2973 RMK A01 T03330192  RH  046%=      5-min Rain = 0
KKN1 272135Z 17013G20KT 33/19 A2973 RMK A01 T03320191  RH  046%=      5-min Rain = 0
KKN1 272140Z 17013G18KT 33/19 A2973 RMK A01 T03310194  RH  047%=      5-min Rain = 0
KKN1 272145Z 18013KT 33/19 A2972 RMK A01 T03330191  RH  046%=      5-min Rain = 0
KKN1 272150Z 17015G23KT 33/19 A2972 RMK A01 T03340193  RH  046%=      5-min Rain = 0
KKN1 272155Z 16014KT 33/20 A2972 RMK A01 T03300195  RH  048%=      5-min Rain = 0
KKN1 272200Z 16017G24KT 33/20 A2971 RMK A01 T03300197  RH  048%=      5-min Rain = 0
KKN1 272205Z 16016G21KT 33/20 A2971 RMK A01 T03300197  RH  048%=      5-min Rain = 0
KKN1 272210Z 15016G22KT 33/20 A2971 RMK A01 T03300197  RH  048%=      5-min Rain = 0
KKN1 272215Z 17015KT 33/20 A297 RMK A01 T03310197  RH  048%=      5-min Rain = 0
KKN1 272220Z 16015G21KT 33/20 A297 RMK A01 T03310197  RH  048%=      5-min Rain = 0
KKN1 272225Z 16016G21KT 33/20 A297 RMK A01 T03290197  RH  048%=      5-min Rain = 0
KKN1 272230Z 16017G22KT 33/20 A297 RMK A01 T03270195  RH  048%=      5-min Rain = 0
KKN1 272235Z 17015G21KT 33/20 A297 RMK A01 T03300197  RH  048%=      5-min Rain = 0
KKN1 272240Z 16016G23KT 33/20 A297 RMK A01 T03280196  RH  049%=      5-min Rain = 0
KKN1 272245Z 16016G22KT 33/20 A297 RMK A01 T03260196  RH  049%=      5-min Rain = 0
KKN1 272250Z 17016G22KT 33/20 A297 RMK A01 T03270195  RH  048%=      5-min Rain = 0
KKN1 272255Z 16015G22KT 33/20 A297 RMK A01 T03260195  RH  049%=      5-min Rain = 0
KKN1 272300Z 15016G23KT 33/20 A297 RMK A01 T03250196  RH  049%=      5-min Rain = 0
KKN1 272305Z 16016G21KT 33/20 A2969 RMK A01 T03250196  RH  049%=      5-min Rain = 0
KKN1 272310Z 16016G22KT 33/20 A2969 RMK A01 T03250196  RH  049%=      5-min Rain = 0
KKN1 272315Z 15018G24KT 32/20 A2969 RMK A01 T03240196  RH  050%=      5-min Rain = 0
KKN1 272320Z 16016G22KT 32/19 A2969 RMK A01 T03210194  RH  050%=      5-min Rain = 0
KKN1 272325Z 15016KT 32/20 A2969 RMK A01 T03190195  RH  051%=      5-min Rain = 0
KKN1 272330Z 16017G23KT 32/19 A2969 RMK A01 T03200194  RH  050%=      5-min Rain = 0
KKN1 272335Z 17017KT 32/19 A2969 RMK A01 T03180192  RH  050%=      5-min Rain = 0
KKN1 272340Z 16018G24KT 32/19 A2969 RMK A01 T03190191  RH  050%=      5-min Rain = 0
KKN1 272345Z 16018G24KT 32/19 A2969 RMK A01 T03190193  RH  050%=      5-min Rain = 0
KKN1 272350Z 16017G23KT 32/19 A2969 RMK A01 T03190193  RH  050%=      5-min Rain = 0
KKN1 272355Z 15018G25KT 32/19 A2968 RMK A01 T03180194  RH  051%=      5-min Rain = 0
KKN1 280000Z 16017G24KT 32/19 A2968 RMK A01 T03180194  RH  051%=      5-min Rain = 0
KKN1 280005Z 16016G22KT 32/20 A2968 RMK A01 T03160195  RH  052%=      5-min Rain = 0
KKN1 280010Z 16016KT 32/20 A2968 RMK A01 T03150196  RH  052%=      5-min Rain = 0
KKN1 280015Z 15015G20KT 31/20 A2968 RMK A01 T03130197  RH  053%=      5-min Rain = 0
KKN1 280020Z 16017G22KT 31/20 A2968 RMK A01 T03120195  RH  053%=      5-min Rain = 0
KKN1 280025Z 15014G19KT 31/20 A2968 RMK A01 T03100195  RH  053%=      5-min Rain = 0
KKN1 280030Z 15016G22KT 31/19 A2968 RMK A01 T03090194  RH  053%=      5-min Rain = 0
KKN1 280035Z 16018G25KT 31/19 A2968 RMK A01 T03070192  RH  053%=      5-min Rain = 0
KKN1 280040Z 15017G23KT 31/19 A2968 RMK A01 T03060190  RH  053%=      5-min Rain = 0
KKN1 280045Z 16014G20KT 30/19 A2968 RMK A01 T03040192  RH  054%=      5-min Rain = 0
KKN1 280050Z 16017KT 30/19 A2968 RMK A01 T03030190  RH  054%=      5-min Rain = 0
KKN1 280055Z 15015KT 30/19 A2968 RMK A01 T03020191  RH  054%=      5-min Rain = 0
KKN1 280100Z 15014G19KT 30/19 A2968 RMK A01 T03000192  RH  056%=      5-min Rain = 0
KKN1 280105Z 15014KT 30/19 A2968 RMK A01 T02980192  RH  056%=      5-min Rain = 0
KKN1 280110Z 15014G21KT 30/19 A2968 RMK A01 T02960191  RH  056%=      5-min Rain = 0
KKN1 280115Z 15013G19KT 29/19 A2968 RMK A01 T02940191  RH  057%=      5-min Rain = 0
KKN1 280120Z 15014G20KT 29/19 A2968 RMK A01 T02930190  RH  057%=      5-min Rain = 0
KKN1 280125Z 15016G21KT 29/19 A2968 RMK A01 T02920188  RH  057%=      5-min Rain = 0
KKN1 280130Z 15014G19KT 29/19 A2968 RMK A01 T02900189  RH  057%=      5-min Rain = 0
KKN1 280135Z 15013G18KT 29/19 A2968 RMK A01 T02870190  RH  059%=      5-min Rain = 0
KKN1 280140Z 15014G19KT 29/19 A2968 RMK A01 T02860188  RH  058%=      5-min Rain = 0
KKN1 280145Z 15013KT 29/19 A2968 RMK A01 T02850188  RH  059%=      5-min Rain = 0
KKN1 280150Z 15014KT 29/19 A2968 RMK A01 T02850187  RH  059%=      5-min Rain = 0
KKN1 280155Z 15015KT 28/19 A2968 RMK A01 T02840187  RH  059%=      5-min Rain = 0
KKN1 280200Z 15014KT 28/19 A2968 RMK A01 T02820187  RH  059%=      5-min Rain = 0
KKN1 280205Z 14013KT 28/19 A2968 RMK A01 T02810187  RH  060%=      5-min Rain = 0
KKN1 280210Z 14012KT 28/19 A2968 RMK A01 T02790187  RH  061%=      5-min Rain = 0
KKN1 280215Z 14012KT 28/19 A2968 RMK A01 T02780187  RH  061%=      5-min Rain = 0
KKN1 280220Z 14013KT 28/19 A2968 RMK A01 T02760187  RH  062%=      5-min Rain = 0
KKN1 280225Z 14013KT 28/19 A2969 RMK A01 T02750188  RH  063%=      5-min Rain = 0
KKN1 280230Z 14012G17KT 27/19 A2968 RMK A01 T02720190  RH  064%=      5-min Rain = 0
KKN1 280235Z 14013KT 27/19 A2968 RMK A01 T02710190  RH  065%=      5-min Rain = 0
KKN1 280240Z 14013KT 27/19 A2968 RMK A01 T02700190  RH  065%=      5-min Rain = 0
KKN1 280245Z 14013KT 27/19 A2968 RMK A01 T02690190  RH  065%=      5-min Rain = 0
KKN1 280250Z 14013G19KT 27/19 A2968 RMK A01 T02680190  RH  066%=      5-min Rain = 0
KKN1 280255Z 14013KT 27/19 A2968 RMK A01 T02680190  RH  066%=      5-min Rain = 0
KKN1 280300Z 14015KT 27/19 A2968 RMK A01 T02680189  RH  066%=      5-min Rain = 0
KKN1 280305Z 14014KT 27/19 A2968 RMK A01 T02670190  RH  066%=      5-min Rain = 0
KKN1 280310Z 14013G19KT 27/19 A2968 RMK A01 T02650190  RH  067%=      5-min Rain = 0
KKN1 280315Z 14013KT 27/19 A2968 RMK A01 T02650190  RH  067%=      5-min Rain = 0
KKN1 280320Z 15012G17KT 26/19 A2969 RMK A01 T02640190  RH  068%=      5-min Rain = 0
KKN1 280325Z 15013G19KT 26/19 A2969 RMK A01 T02630190  RH  068%=      5-min Rain = 0
KKN1 280330Z 15012KT 26/19 A2969 RMK A01 T02630190  RH  068%=      5-min Rain = 0
KKN1 280335Z 15012KT 26/19 A2969 RMK A01 T02620191  RH  069%=      5-min Rain = 0
KKN1 280340Z 15013KT 26/19 A2969 RMK A01 T02600191  RH  069%=      5-min Rain = 0
KKN1 280345Z 15012KT 26/19 A2969 RMK A01 T02600192  RH  070%=      5-min Rain = 0
KKN1 280350Z 15011KT 26/19 A2969 RMK A01 T02580192  RH  071%=      5-min Rain = 0
KKN1 280355Z 15011G16KT 26/19 A297 RMK A01 T02580193  RH  071%=      5-min Rain = 0
KKN1 280400Z 15011G17KT 26/19 A297 RMK A01 T02570193  RH  072%=      5-min Rain = 0
KKN1 280405Z 15010G15KT 26/19 A297 RMK A01 T02560193  RH  072%=      5-min Rain = 0
KKN1 280410Z 16010KT 26/19 A297 RMK A01 T02550193  RH  073%=      5-min Rain = 0
KKN1 280415Z 16010KT 26/19 A297 RMK A01 T02550194  RH  073%=      5-min Rain = 0
KKN1 280420Z 16008KT 25/19 A297 RMK A01 T02540194  RH  073%=      5-min Rain = 0
KKN1 280425Z 15008KT 25/19 A297 RMK A01 T02530194  RH  074%=      5-min Rain = 0
KKN1 280430Z 16008KT 25/19 A297 RMK A01 T02520194  RH  074%=      5-min Rain = 0
KKN1 280435Z 16009KT 25/19 A297 RMK A01 T02520194  RH  074%=      5-min Rain = 0
KKN1 280440Z 16008KT 25/20 A297 RMK A01 T02520195  RH  075%=      5-min Rain = 0
KKN1 280445Z 16009KT 25/20 A297 RMK A01 T02510195  RH  075%=      5-min Rain = 0
KKN1 280450Z 16009G14KT 25/20 A297 RMK A01 T02520195  RH  075%=      5-min Rain = 0
KKN1 280455Z 16010G15KT 25/19 A297 RMK A01 T02520194  RH  074%=      5-min Rain = 0

Page generated in 0.0131 seconds.